Time;durP1;ratioP1;P1;durP2;ratioP2;P2;SDS_P1;SDS_P2;PMS_P1;PMS_P2;Temp;Humidity;BMP_temperature;BMP_pressure;BME280_temperature;BME280_humidity;BME280_pressure;Samples;Min_cycle;Max_cycle;Signal;HPM_P1;HPM_P2
2022/05/02 00:01:23;;;;;;;8.73;7.93;;;;;;;8.13;72.95;101332.72;5002375;28;20021;-70
2022/05/02 00:03:49;;;;;;;8.68;7.80;;;;;;;8.19;72.75;101334.94;4984992;28;20010;-70
2022/05/02 00:06:14;;;;;;;9.63;8.77;;;;;;;8.18;73.01;101326.19;4969092;28;20017;-70
2022/05/02 00:08:39;;;;;;;9.10;8.27;;;;;;;8.24;72.70;101332.81;4987140;28;20018;-71
2022/05/02 00:11:05;;;;;;;9.70;8.38;;;;;;;8.17;72.87;101327.13;4988468;28;20804;-70
2022/05/02 00:13:31;;;;;;;9.50;8.60;;;;;;;8.02;73.48;101333.47;5001251;28;20507;-69
2022/05/02 00:15:57;;;;;;;8.93;8.13;;;;;;;7.99;73.63;101336.31;5021493;28;20017;-70
2022/05/02 00:18:22;;;;;;;9.32;8.35;;;;;;;7.98;74.06;101326.72;5026195;28;20017;-71
2022/05/02 00:20:48;;;;;;;9.15;8.25;;;;;;;8.06;73.66;101330.50;4985808;28;20012;-70
2022/05/02 00:23:14;;;;;;;8.82;8.02;;;;;;;8.09;73.72;101334.72;4995406;28;20855;-70
2022/05/02 00:25:39;;;;;;;9.10;8.30;;;;;;;8.14;73.14;101321.25;4977346;28;20860;-70
2022/05/02 00:28:05;;;;;;;8.20;7.50;;;;;;;8.03;73.58;101335.97;4976878;28;20439;-71
2022/05/02 00:30:30;;;;;;;8.77;7.97;;;;;;;8.12;73.79;101326.59;4974791;28;20012;-71
2022/05/02 00:32:56;;;;;;;9.10;7.95;;;;;;;8.12;73.37;101316.03;4995779;28;20021;-70
2022/05/02 00:35:22;;;;;;;11.00;9.38;;;;;;;7.84;73.93;101302.16;4976094;28;20014;-70
2022/05/02 00:37:47;;;;;;;9.80;8.77;;;;;;;7.86;74.21;101313.44;4988947;28;20514;-70
2022/05/02 00:40:14;;;;;;;8.45;7.78;;;;;;;7.80;74.53;101308.59;4959559;28;20511;-70
2022/05/02 00:42:39;;;;;;;9.43;8.52;;;;;;;7.84;74.79;101304.81;4955677;28;20017;-70
2022/05/02 00:45:06;;;;;;;8.70;7.90;;;;;;;7.87;74.50;101298.47;4965539;28;20096;-70
2022/05/02 00:47:32;;;;;;;9.63;8.02;;;;;;;7.91;74.03;101305.22;4971878;28;20959;-71
2022/05/02 00:49:57;;;;;;;8.75;7.95;;;;;;;8.00;73.87;101294.03;4973092;28;20022;-71
2022/05/02 00:52:22;;;;;;;8.63;7.72;;;;;;;7.81;74.46;101293.63;4938473;28;20022;-70
2022/05/02 00:54:48;;;;;;;8.55;7.90;;;;;;;7.69;74.85;101290.88;4956827;28;20501;-70
2022/05/02 00:57:14;;;;;;;8.70;7.90;;;;;;;7.71;75.18;101289.00;4957696;28;20468;-70
2022/05/02 00:59:39;;;;;;;8.95;8.07;;;;;;;7.74;74.76;101298.44;4963960;28;20006;-70
2022/05/02 01:02:08;;;;;;;12.40;8.20;;;;;;;7.81;74.61;101289.22;4997986;28;20012;-70
2022/05/02 01:04:34;;;;;;;9.45;7.90;;;;;;;7.63;74.94;101291.31;4979598;28;20051;-70
2022/05/02 01:07:09;;;;;;;9.57;8.70;;;;;;;7.66;75.19;101290.25;4977473;28;20034;-70
2022/05/02 01:09:38;;;;;;;8.82;7.93;;;;;;;7.61;75.64;101292.34;4975627;28;20006;-70
2022/05/02 01:12:07;;;;;;;9.40;8.07;;;;;;;7.62;75.53;101294.03;4956512;28;20124;-70
2022/05/02 01:14:35;;;;;;;9.75;8.40;;;;;;;7.64;75.72;101279.81;4952403;28;20918;-71
2022/05/02 01:17:04;;;;;;;9.23;8.35;;;;;;;7.65;75.98;101288.56;4955927;28;20758;-69
2022/05/02 01:19:30;;;;;;;8.50;7.70;;;;;;;7.78;75.59;101289.38;4969593;28;20022;-69
2022/05/02 01:21:55;;;;;;;8.73;7.93;;;;;;;7.94;74.91;101290.97;4919068;28;20118;-69
2022/05/02 01:24:21;;;;;;;10.35;7.72;;;;;;;7.98;74.63;101285.41;4953010;28;20960;-69
2022/05/02 01:26:46;;;;;;;8.95;8.00;;;;;;;7.98;74.75;101284.53;4916178;28;20119;-71
2022/05/02 01:29:11;;;;;;;9.50;8.35;;;;;;;7.91;74.84;101278.88;4946458;28;20026;-71
2022/05/02 01:31:37;;;;;;;8.15;7.53;;;;;;;7.88;75.27;101277.28;4941571;28;20423;-70
2022/05/02 01:34:02;;;;;;;9.27;8.30;;;;;;;7.85;75.61;101276.66;4930975;28;20041;-71
2022/05/02 01:36:28;;;;;;;8.68;7.85;;;;;;;7.93;75.57;101276.13;4956743;28;20017;-71
2022/05/02 01:38:53;;;;;;;9.52;8.02;;;;;;;8.10;75.02;101270.50;4994816;28;20954;-71
2022/05/02 01:41:19;;;;;;;8.82;8.13;;;;;;;7.94;75.77;101268.13;4973648;28;20024;-71
2022/05/02 01:43:44;;;;;;;9.45;7.85;;;;;;;7.85;75.84;101263.47;4942348;28;20021;-70
2022/05/02 01:46:11;;;;;;;8.85;7.82;;;;;;;7.78;75.71;101273.59;4994102;28;20030;-71
2022/05/02 01:48:36;;;;;;;8.40;7.68;;;;;;;7.78;75.79;101278.03;4980070;28;20823;-72
2022/05/02 01:51:02;;;;;;;9.60;8.02;;;;;;;7.79;74.96;101272.66;4976075;28;20013;-71
2022/05/02 01:53:27;;;;;;;9.77;7.68;;;;;;;7.99;74.89;101271.25;4974620;28;20785;-71
2022/05/02 01:55:53;;;;;;;8.55;7.75;;;;;;;8.03;74.98;101274.53;4988432;28;20086;-71
2022/05/02 01:58:18;;;;;;;8.18;7.43;;;;;;;7.98;75.45;101279.28;4988336;28;20014;-71
2022/05/02 02:00:43;;;;;;;14.98;8.00;;;;;;;7.93;75.61;101278.78;5008352;28;20926;-70
2022/05/02 02:03:09;;;;;;;8.20;7.45;;;;;;;7.90;75.81;101285.91;4978553;28;20013;-70
2022/05/02 02:05:49;;;;;;;8.68;7.63;;;;;;;7.89;75.69;101280.75;4980318;28;20405;-71
2022/05/02 02:08:22;;;;;;;9.10;8.20;;;;;;;7.94;76.12;101272.53;4983652;28;20110;-71
2022/05/02 02:10:48;;;;;;;8.93;8.02;;;;;;;7.95;76.14;101274.22;5014228;28;20029;-70
2022/05/02 02:13:13;;;;;;;9.25;8.35;;;;;;;7.91;76.77;101273.59;4995745;28;21036;-71
2022/05/02 02:15:39;;;;;;;8.90;8.20;;;;;;;7.90;76.95;101267.47;4963585;28;20083;-70
2022/05/02 02:18:05;;;;;;;8.30;7.60;;;;;;;8.02;76.38;101267.56;4991030;27;20051;-71
2022/05/02 02:20:30;;;;;;;8.10;7.45;;;;;;;8.11;76.47;101264.31;5001154;27;20024;-70
2022/05/02 02:22:56;;;;;;;8.98;7.43;;;;;;;8.09;75.74;101266.19;5008065;28;20025;-71
2022/05/02 02:25:21;;;;;;;8.88;7.95;;;;;;;8.12;75.48;101270.41;4979858;28;20945;-70
2022/05/02 02:27:46;;;;;;;8.68;7.70;;;;;;;8.16;75.48;101262.16;4997805;28;20330;-71
2022/05/02 02:30:14;;;;;;;11.85;7.90;;;;;;;8.21;75.75;101265.31;4983534;28;20106;-71
2022/05/02 02:32:39;;;;;;;8.38;7.65;;;;;;;8.08;75.99;101272.44;4983660;28;20846;-70
2022/05/02 02:35:05;;;;;;;8.90;8.00;;;;;;;8.21;74.74;101265.31;4963640;28;20239;-70
2022/05/02 02:37:31;;;;;;;8.98;8.07;;;;;;;8.35;75.57;101264.34;4994593;28;20782;-71
2022/05/02 02:39:56;;;;;;;8.82;8.02;;;;;;;8.29;75.61;101261.31;4966598;28;20021;-70
2022/05/02 02:42:24;;;;;;;9.43;8.57;;;;;;;8.15;76.10;101257.88;5004958;28;20025;-70
2022/05/02 02:44:50;;;;;;;9.18;8.27;;;;;;;8.30;75.52;101258.56;4981419;28;20495;-71
2022/05/02 02:47:15;;;;;;;9.93;9.02;;;;;;;8.37;75.16;101259.78;4973555;28;20009;-70
2022/05/02 02:49:41;;;;;;;10.07;8.55;;;;;;;8.37;75.47;101254.53;5019252;27;20019;-69
2022/05/02 02:52:08;;;;;;;10.65;9.07;;;;;;;8.31;75.44;101246.22;5006670;27;20871;-69
2022/05/02 02:54:33;;;;;;;9.68;8.55;;;;;;;8.15;76.47;101244.69;5039486;27;20013;-70
2022/05/02 02:56:58;;;;;;;8.00;7.13;;;;;;;8.19;76.06;101240.03;4969789;28;20078;-70
2022/05/02 02:59:24;;;;;;;7.38;6.80;;;;;;;8.16;76.37;101235.81;4981827;28;20022;-70
2022/05/02 03:01:49;;;;;;;8.82;7.20;;;;;;;8.10;76.38;101236.25;4974886;28;20010;-70
2022/05/02 03:06:59;;;;;;;10.77;8.13;;;;;;;8.10;76.58;101241.53;4999318;28;20137;-69
2022/05/02 03:09:24;;;;;;;8.60;7.68;;;;;;;8.11;77.00;101237.94;4988005;28;20364;-70
2022/05/02 03:11:49;;;;;;;7.93;7.22;;;;;;;8.01;77.36;101235.09;4969375;28;20498;-69
2022/05/02 03:14:15;;;;;;;9.55;7.85;;;;;;;8.08;77.50;101239.00;4984841;28;20013;-70
2022/05/02 03:16:40;;;;;;;8.82;7.95;;;;;;;8.14;77.03;101237.72;4992230;28;20010;-69
2022/05/02 03:19:06;;;;;;;8.88;7.97;;;;;;;8.12;77.61;101238.78;4989127;28;20071;-69
2022/05/02 03:21:31;;;;;;;10.32;8.65;;;;;;;8.21;77.19;101228.41;4988502;28;20032;-69
2022/05/02 03:23:56;;;;;;;9.30;8.50;;;;;;;8.23;77.16;101231.81;5004304;28;20494;-70
2022/05/02 03:26:22;;;;;;;8.43;7.63;;;;;;;8.16;77.46;101225.25;4991202;28;20009;-70
2022/05/02 03:28:47;;;;;;;9.07;8.18;;;;;;;8.14;77.44;101227.19;4985423;28;20316;-69
2022/05/02 03:31:13;;;;;;;12.27;8.88;;;;;;;8.14;77.66;101226.34;4966586;28;20014;-70
2022/05/02 03:33:38;;;;;;;10.02;9.00;;;;;;;8.12;77.53;101228.22;4983797;28;20016;-69
2022/05/02 03:36:04;;;;;;;11.27;10.23;;;;;;;8.14;77.55;101232.44;4996855;28;20662;-69
2022/05/02 03:38:29;;;;;;;12.48;10.00;;;;;;;8.10;77.73;101232.78;4998845;28;20627;-70
2022/05/02 03:40:54;;;;;;;11.15;10.05;;;;;;;8.15;77.83;101230.63;4958261;28;20436;-69
2022/05/02 03:43:20;;;;;;;10.20;9.20;;;;;;;8.20;77.97;101229.34;4955028;28;20017;-70
2022/05/02 03:45:45;;;;;;;10.95;9.75;;;;;;;8.28;77.99;101227.97;4945163;28;20096;-70
2022/05/02 03:48:11;;;;;;;10.73;9.63;;;;;;;8.30;77.42;101220.81;4939908;28;20108;-69
2022/05/02 03:50:36;;;;;;;11.60;9.93;;;;;;;8.23;77.86;101216.00;4955887;28;21042;-70
2022/05/02 03:53:01;;;;;;;10.98;9.32;;;;;;;8.24;77.60;101217.66;4974709;28;20551;-70
2022/05/02 03:55:27;;;;;;;10.90;9.90;;;;;;;8.21;77.90;101223.16;4936998;28;20018;-70
2022/05/02 03:57:52;;;;;;;10.90;9.80;;;;;;;8.16;78.26;101227.06;4955900;28;20693;-70
2022/05/02 04:00:18;;;;;;;11.77;9.50;;;;;;;8.03;78.50;101224.47;4975107;28;20044;-70
2022/05/02 04:02:43;;;;;;;10.70;9.70;;;;;;;8.09;78.34;101218.75;4984732;28;20971;-71
2022/05/02 04:05:09;;;;;;;9.85;8.98;;;;;;;8.30;77.92;101218.16;4976751;28;20115;-72
2022/05/02 04:07:35;;;;;;;9.68;8.77;;;;;;;8.45;77.14;101216.22;4935158;28;20355;-70
2022/05/02 04:10:00;;;;;;;12.25;9.32;;;;;;;8.45;76.89;101213.59;4973788;28;20383;-70
2022/05/02 04:12:25;;;;;;;10.05;9.20;;;;;;;8.43;76.72;101224.22;4970228;28;20105;-70
2022/05/02 04:14:51;;;;;;;10.43;9.43;;;;;;;8.32;76.86;101224.16;4975128;28;20331;-69
2022/05/02 04:17:16;;;;;;;11.10;9.27;;;;;;;8.28;76.49;101217.41;4967280;28;20016;-70
2022/05/02 04:19:42;;;;;;;10.98;9.55;;;;;;;8.26;77.28;101225.44;4977243;28;20018;-70
2022/05/02 04:22:07;;;;;;;10.75;9.75;;;;;;;8.27;77.72;101223.66;4960841;28;20002;-70
2022/05/02 04:24:33;;;;;;;12.38;8.82;;;;;;;8.22;77.58;101211.66;4981390;28;20014;-70
2022/05/02 04:26:58;;;;;;;10.85;9.70;;;;;;;8.28;77.61;101214.78;4962624;28;20036;-69
2022/05/02 04:29:24;;;;;;;10.73;9.82;;;;;;;8.42;77.05;101217.28;4958647;28;20030;-69
2022/05/02 04:31:50;;;;;;;12.02;9.63;;;;;;;8.36;77.18;101223.00;4957861;28;20095;-70
2022/05/02 04:34:15;;;;;;;9.75;8.90;;;;;;;8.35;77.79;101229.25;4974496;28;20296;-70
2022/05/02 04:36:41;;;;;;;9.75;8.73;;;;;;;8.33;78.03;101218.78;4952978;28;20014;-69
2022/05/02 04:39:06;;;;;;;10.10;9.05;;;;;;;8.35;78.26;101218.69;5011323;28;20025;-69
2022/05/02 04:41:32;;;;;;;10.30;9.30;;;;;;;8.50;78.12;101222.88;4989217;28;20090;-70
2022/05/02 04:43:57;;;;;;;10.18;9.38;;;;;;;8.63;77.66;101221.97;4990818;28;20445;-71
2022/05/02 04:46:23;;;;;;;10.32;9.32;;;;;;;8.63;77.20;101230.75;4979825;28;20033;-70
2022/05/02 04:48:48;;;;;;;10.82;9.35;;;;;;;8.53;77.62;101225.31;4958048;28;20005;-70
2022/05/02 04:51:13;;;;;;;10.52;8.95;;;;;;;8.52;77.71;101226.25;4964154;28;20087;-70
2022/05/02 04:53:39;;;;;;;10.57;9.00;;;;;;;8.64;77.61;101231.56;4973014;28;20010;-69
2022/05/02 04:56:04;;;;;;;9.80;9.00;;;;;;;8.64;77.74;101234.22;4990743;28;20002;-69
2022/05/02 04:58:30;;;;;;;9.90;8.55;;;;;;;8.68;77.71;101227.75;4983921;28;21072;-70
2022/05/02 05:00:55;;;;;;;9.88;9.00;;;;;;;8.85;78.15;101230.00;4987075;28;20612;-70
2022/05/02 05:03:21;;;;;;;10.30;8.60;;;;;;;8.72;77.46;101234.50;4958963;28;20009;-71
2022/05/02 05:05:46;;;;;;;9.25;8.35;;;;;;;8.70;78.45;101231.13;4972075;28;20187;-70
2022/05/02 05:08:13;;;;;;;9.05;8.15;;;;;;;8.71;78.70;101232.81;4942552;28;20014;-70
2022/05/02 05:10:46;;;;;;;9.85;8.85;;;;;;;8.66;78.92;101229.66;4956419;28;20760;-71
2022/05/02 05:13:12;;;;;;;9.55;8.43;;;;;;;8.73;78.23;101233.56;4976427;28;20010;-71
2022/05/02 05:19:07;;;;;;;9.15;8.43;;;;;;;8.86;79.05;101229.03;5009494;28;20615;-71
2022/05/02 05:21:58;;;;;;;10.07;9.07;;;;;;;8.87;79.06;101229.88;4976021;28;20094;-69
2022/05/02 05:25:01;;;;;;;9.63;8.73;;;;;;;8.95;78.59;101224.88;4965426;28;20039;-71
2022/05/02 05:27:47;;;;;;;10.10;8.85;;;;;;;9.14;78.18;101228.75;4961657;28;20033;-70
2022/05/02 05:30:12;;;;;;;8.90;8.10;;;;;;;9.15;77.91;101222.53;4967158;28;20588;-70
2022/05/02 05:32:57;;;;;;;9.57;8.55;;;;;;;9.24;77.62;101227.13;4980022;28;20079;-70
2022/05/02 05:35:23;;;;;;;;;;;;;;;9.37;76.45;101216.47;4983672;28;20553;-70
2022/05/02 05:38:01;;;;;;;9.52;8.70;;;;;;;9.52;76.11;101220.59;4974805;28;19924;-70
2022/05/02 05:40:39;;;;;;;10.15;9.00;;;;;;;9.59;75.98;101227.06;4960803;28;20502;-70
2022/05/02 05:43:13;;;;;;;11.98;9.20;;;;;;;9.70;76.16;101225.38;4954902;28;20006;-70
2022/05/02 05:45:57;;;;;;;12.95;9.95;;;;;;;9.81;75.40;101230.69;4937154;28;20126;-69
2022/05/02 05:48:28;;;;;;;;;;;;;;;9.89;75.10;101230.94;4996123;28;20038;-70
2022/05/02 05:51:24;;;;;;;9.88;9.02;;;;;;;9.85;74.91;101229.47;4968896;28;19908;-70
2022/05/02 05:54:24;;;;;;;10.15;9.25;;;;;;;9.95;74.07;101232.25;4942950;28;20901;-69
2022/05/02 05:57:27;;;;;;;10.98;9.93;;;;;;;10.14;72.54;101244.88;4987337;28;20018;-70
2022/05/02 06:00:09;;;;;;;10.85;9.80;;;;;;;10.28;71.55;101230.56;4960994;28;20025;-69
2022/05/02 06:03:09;;;;;;;12.75;10.25;;;;;;;10.36;71.97;101240.53;4974869;28;20015;-71
2022/05/02 06:05:37;;;;;;;11.48;10.38;;;;;;;10.49;70.00;101235.94;4955334;28;20014;-69
2022/05/02 06:08:03;;;;;;;12.05;9.55;;;;;;;10.56;70.41;101233.63;4938751;28;20950;-69
2022/05/02 06:10:28;;;;;;;14.88;10.65;;;;;;;10.58;69.75;101231.72;4955741;28;20102;-69
2022/05/02 06:12:54;;;;;;;11.20;10.20;;;;;;;10.60;70.51;101233.28;4960810;28;20022;-69
2022/05/02 06:20:48;;;;;;;12.77;9.77;;;;;;;10.91;69.60;101235.19;4971040;28;20809;-72
2022/05/02 06:23:14;;;;;;;10.38;9.38;;;;;;;10.95;70.67;101237.47;4964624;28;20966;-69
2022/05/02 06:25:39;;;;;;;10.82;9.85;;;;;;;11.06;68.50;101239.22;4950236;28;20896;-70
2022/05/02 06:28:05;;;;;;;15.00;10.13;;;;;;;11.13;68.24;101239.56;4948636;28;20022;-70
2022/05/02 06:30:31;;;;;;;13.20;10.27;;;;;;;11.25;67.34;101230.59;4949685;28;20117;-69
2022/05/02 06:32:58;;;;;;;13.95;10.13;;;;;;;11.31;67.11;101238.00;4964981;28;20763;-70
2022/05/02 06:35:28;;;;;;;20.25;10.60;;;;;;;11.30;65.88;101241.63;4980177;28;20143;-69
2022/05/02 06:38:28;;;;;;;17.10;11.10;;;;;;;11.31;66.25;101240.66;4939313;28;20680;-70
2022/05/02 06:40:56;;;;;;;12.38;10.20;;;;;;;11.57;65.81;101242.06;4991199;28;20067;-70
2022/05/02 06:43:25;;;;;;;14.65;11.57;;;;;;;11.66;65.17;101233.31;5017540;28;20029;-69
2022/05/02 06:46:05;;;;;;;12.07;10.82;;;;;;;11.88;63.25;101242.91;4976124;28;20041;-70
2022/05/02 06:48:38;;;;;;;13.35;11.05;;;;;;;11.95;62.66;101244.09;5006231;28;20029;-70
2022/05/02 06:51:14;;;;;;;14.77;10.63;;;;;;;12.14;61.83;101245.13;4992782;28;20602;-70
2022/05/02 06:53:53;;;;;;;12.88;10.10;;;;;;;12.29;60.37;101242.94;4995420;28;20283;-70
2022/05/02 06:56:18;;;;;;;15.20;10.90;;;;;;;12.36;60.71;101249.38;4995093;28;20009;-70
2022/05/02 06:58:57;;;;;;;14.20;11.13;;;;;;;12.41;61.32;101254.28;5003377;28;20048;-70
2022/05/02 07:01:44;;;;;;;14.68;10.70;;;;;;;12.31;62.16;101248.94;4973425;28;20074;-70
2022/05/02 07:04:24;;;;;;;11.27;10.15;;;;;;;12.49;61.61;101249.13;4993756;28;20026;-70
2022/05/02 07:07:27;;;;;;;16.05;11.27;;;;;;;12.61;59.86;101245.38;4981940;28;20113;-70
2022/05/02 07:09:59;;;;;;;11.80;9.48;;;;;;;12.68;60.96;101243.03;4994446;28;20018;-71
2022/05/02 07:12:25;;;;;;;11.50;9.95;;;;;;;12.75;61.63;101245.94;4958419;28;20429;-71
2022/05/02 07:14:53;;;;;;;10.43;9.40;;;;;;;12.83;60.72;101257.56;4943117;28;20014;-70
2022/05/02 07:17:35;;;;;;;11.02;9.30;;;;;;;12.90;58.69;101255.19;4968539;28;20779;-70
2022/05/02 07:20:04;;;;;;;11.70;10.00;;;;;;;12.89;57.55;101248.22;4961074;28;20461;-70
2022/05/02 07:22:37;;;;;;;11.95;10.43;;;;;;;12.83;58.31;101251.41;4954894;28;20175;-70
2022/05/02 07:25:08;;;;;;;13.70;10.90;;;;;;;12.92;57.62;101253.25;4943291;28;20478;-70
2022/05/02 07:27:52;;;;;;;10.57;9.63;;;;;;;13.01;57.15;101249.72;4974502;28;20188;-72
2022/05/02 07:30:20;;;;;;;12.48;9.02;;;;;;;13.10;57.77;101247.22;4991756;28;20045;-70
2022/05/02 07:32:45;;;;;;;10.38;9.32;;;;;;;13.13;58.18;101249.59;4969921;28;20002;-71
2022/05/02 07:35:11;;;;;;;17.50;10.38;;;;;;;12.98;58.21;101239.38;4954561;28;20032;-71
2022/05/02 07:37:36;;;;;;;10.90;9.75;;;;;;;13.11;57.22;101240.94;4977119;28;20966;-70
2022/05/02 07:40:02;;;;;;;11.00;9.25;;;;;;;13.26;58.46;101236.03;4979322;28;20365;-70
2022/05/02 07:42:27;;;;;;;12.85;10.20;;;;;;;13.34;56.90;101237.00;4965958;28;20017;-71
2022/05/02 07:44:55;;;;;;;11.18;9.40;;;;;;;13.34;57.10;101230.81;4962455;28;20034;-70
2022/05/02 07:47:20;;;;;;;11.18;9.98;;;;;;;13.51;56.86;101240.75;4929829;28;20033;-70
2022/05/02 07:49:50;;;;;;;11.07;9.95;;;;;;;13.46;57.28;101232.38;4976410;28;20167;-71
2022/05/02 07:52:16;;;;;;;13.40;10.10;;;;;;;13.65;58.37;101228.81;4962874;28;20076;-70
2022/05/02 07:54:42;;;;;;;10.73;9.70;;;;;;;13.69;56.09;101232.88;4952558;28;20408;-71
2022/05/02 07:57:07;;;;;;;14.70;9.95;;;;;;;13.65;56.68;101231.50;4987690;28;20209;-70
2022/05/02 07:59:39;;;;;;;11.52;9.73;;;;;;;13.68;56.37;101235.69;4997978;28;20133;-71
2022/05/02 08:02:05;;;;;;;12.90;10.50;;;;;;;13.72;55.90;101237.03;4982368;28;20778;-70
2022/05/02 08:04:30;;;;;;;10.50;9.43;;;;;;;13.74;55.05;101232.44;4993380;28;20112;-71
2022/05/02 08:07:06;;;;;;;15.00;9.23;;;;;;;13.82;54.34;101235.19;4991995;28;20827;-71
2022/05/02 08:09:52;;;;;;;12.02;9.27;;;;;;;14.00;54.34;101229.97;5028524;28;20389;-71
2022/05/02 08:12:22;;;;;;;9.90;8.90;;;;;;;13.99;54.93;101222.94;5018706;27;20102;-70
2022/05/02 08:15:00;;;;;;;10.43;8.10;;;;;;;14.04;53.92;101218.00;5007246;28;20010;-72
2022/05/02 08:18:04;;;;;;;10.32;8.80;;;;;;;14.28;53.88;101224.59;5010095;28;19998;-71
2022/05/02 08:20:39;;;;;;;8.95;8.02;;;;;;;14.31;54.52;101216.31;4966764;28;20063;-71
2022/05/02 08:29:35;;;;;;;9.20;8.32;;;;;;;14.80;54.97;101209.84;4992207;28;20285;-71
2022/05/02 08:32:08;;;;;;;10.20;8.07;;;;;;;14.97;56.94;101214.31;4992309;28;20065;-71
2022/05/02 08:34:36;;;;;;;9.38;8.18;;;;;;;15.23;55.60;101217.03;4958646;28;20117;-71
2022/05/02 08:37:30;;;;;;;10.88;9.10;;;;;;;15.28;54.09;101225.41;4984784;28;20579;-72
2022/05/02 08:39:56;;;;;;;;;;;;;;;15.27;53.52;101217.53;4989798;28;20045;-73
2022/05/02 08:42:49;;;;;;;12.53;8.93;;;;;;;15.34;53.28;101209.75;4987046;28;19977;-71
2022/05/02 08:45:47;;;;;;;11.50;9.30;;;;;;;15.40;51.87;101215.31;4984106;28;20152;-71
2022/05/02 08:48:42;;;;;;;8.65;7.90;;;;;;;15.49;52.97;101210.03;4985362;28;20022;-71
2022/05/02 08:51:46;;;;;;;9.18;7.85;;;;;;;15.66;52.20;101202.94;5010497;28;20017;-70
2022/05/02 08:54:48;;;;;;;9.40;8.57;;;;;;;16.03;51.85;101207.97;5028799;28;20810;-71
2022/05/02 08:57:33;;;;;;;9.38;7.88;;;;;;;16.05;51.31;101203.31;4971386;28;20028;-72
2022/05/02 09:00:09;;;;;;;13.73;9.15;;;;;;;16.05;50.80;101195.31;4969216;28;20356;-72
2022/05/02 09:03:12;;;;;;;9.00;7.90;;;;;;;16.27;51.78;101201.88;4973522;28;20022;-70
2022/05/02 09:06:03;;;;;;;9.07;8.32;;;;;;;16.60;50.29;101198.44;4991840;28;20826;-72
2022/05/02 09:08:54;;;;;;;8.73;7.88;;;;;;;16.89;50.11;101195.28;5008572;28;20022;-71
2022/05/02 09:11:53;;;;;;;8.82;7.82;;;;;;;17.36;50.85;101183.06;5012824;28;20063;-72
2022/05/02 09:14:18;;;;;;;9.23;8.10;;;;;;;17.55;48.76;101189.03;4967041;28;20029;-71
2022/05/02 09:16:55;;;;;;;9.97;7.63;;;;;;;17.62;47.70;101190.00;4994920;28;20050;-72
2022/05/02 09:19:43;;;;;;;9.20;8.30;;;;;;;17.79;47.20;101188.91;4971307;28;20519;-70
2022/05/02 09:22:28;;;;;;;9.07;7.80;;;;;;;18.09;45.62;101188.31;4988535;28;20098;-71
2022/05/02 09:25:07;;;;;;;10.18;8.27;;;;;;;18.45;47.72;101191.28;4988991;28;20764;-72
2022/05/02 09:27:46;;;;;;;9.57;8.60;;;;;;;18.61;45.87;101182.28;4986574;28;20032;-71
2022/05/02 09:30:17;;;;;;;8.82;7.90;;;;;;;18.91;46.25;101181.59;4985050;28;20153;-71
2022/05/02 09:33:05;;;;;;;13.52;10.07;;;;;;;19.16;44.70;101183.03;4982311;28;20033;-71
2022/05/02 09:35:31;;;;;;;10.90;8.82;;;;;;;19.44;44.51;101182.41;5003610;28;20095;-71
2022/05/02 09:38:03;;;;;;;12.02;8.73;;;;;;;19.44;43.20;101178.91;4981416;28;20796;-70
2022/05/02 09:40:33;;;;;;;9.48;8.52;;;;;;;19.44;42.73;101177.03;4986828;28;20079;-74
2022/05/02 09:49:33;;;;;;;9.73;8.73;;;;;;;19.45;42.85;101167.97;4963680;28;20908;-73
2022/05/02 09:49:53;;;;;;;8.95;7.95;;;;;;;19.85;42.62;101173.06;4977610;28;20083;-69
2022/05/02 09:52:27;;;;;;;8.00;7.20;;;;;;;20.20;41.23;101166.03;5009102;28;20025;-71
2022/05/02 09:58:09;;;;;;;8.55;7.75;;;;;;;20.92;40.06;101158.03;5031373;28;20572;-72
2022/05/02 10:03:36;;;;;;;9.20;7.90;;;;;;;21.27;39.58;101164.28;5014754;28;20040;-72
2022/05/02 10:06:10;;;;;;;8.60;6.93;;;;;;;21.56;38.72;101154.34;5007215;28;20288;-72
2022/05/02 10:08:47;;;;;;;8.25;7.15;;;;;;;22.15;38.37;101149.34;5013160;28;21018;-71
2022/05/02 10:11:30;;;;;;;9.27;6.72;;;;;;;22.19;37.60;101147.91;4996824;28;20057;-72
2022/05/02 10:14:17;;;;;;;9.52;6.95;;;;;;;22.57;37.14;101139.28;4997499;28;20037;-71
2022/05/02 10:17:00;;;;;;;6.80;6.20;;;;;;;22.92;37.37;101139.06;4974948;28;20018;-72
2022/05/02 10:19:35;;;;;;;10.00;7.10;;;;;;;22.90;36.06;101146.56;4995397;28;20264;-72
2022/05/02 10:22:38;;;;;;;9.05;6.85;;;;;;;23.44;36.90;101149.19;4994460;27;20013;-72
2022/05/02 10:25:13;;;;;;;11.27;8.98;;;;;;;23.99;36.52;101144.19;5053723;27;20242;-72
2022/05/02 10:27:54;;;;;;;9.75;6.95;;;;;;;23.28;35.05;101139.66;5006937;28;20516;-71
2022/05/02 10:30:23;;;;;;;7.05;6.45;;;;;;;23.78;37.51;101141.78;5032140;28;20021;-73
2022/05/02 10:32:53;;;;;;;11.13;7.20;;;;;;;23.21;36.98;101137.00;4997120;28;20059;-72
2022/05/02 10:35:19;;;;;;;7.50;6.80;;;;;;;23.84;34.40;101136.34;5030988;28;20028;-72
2022/05/02 10:38:02;;;;;;;7.45;6.50;;;;;;;24.15;36.21;101128.50;5007528;28;20038;-73
2022/05/02 10:40:39;;;;;;;9.55;6.72;;;;;;;24.51;34.58;101137.84;4993376;28;20029;-72
2022/05/02 10:43:06;;;;;;;8.60;6.20;;;;;;;24.95;33.74;101127.88;5013781;28;20869;-72
2022/05/02 10:45:41;;;;;;;8.30;5.90;;;;;;;25.31;33.24;101130.84;5009146;28;20022;-72
2022/05/02 10:48:18;;;;;;;6.97;6.28;;;;;;;25.13;34.06;101129.78;4944934;28;20176;-72
2022/05/02 10:51:14;;;;;;;9.77;7.05;;;;;;;24.96;31.59;101118.72;4975538;28;20109;-72
2022/05/02 10:54:01;;;;;;;6.80;6.20;;;;;;;25.16;31.03;101121.22;4969140;28;20022;-71
2022/05/02 10:56:35;;;;;;;5.60;5.10;;;;;;;25.83;31.02;101112.31;4985924;28;20035;-72
2022/05/02 10:59:02;;;;;;;7.22;6.07;;;;;;;24.99;31.28;101110.16;4975425;28;20026;-72
2022/05/02 11:01:46;;;;;;;5.78;5.28;;;;;;;24.96;32.97;101112.47;4958740;28;20534;-71
2022/05/02 11:04:20;;;;;;;6.38;5.80;;;;;;;24.60;33.34;101111.31;4951948;28;20018;-72
2022/05/02 11:07:05;;;;;;;7.65;5.20;;;;;;;24.38;35.28;101109.00;4953419;28;20045;-72
2022/05/02 11:09:39;;;;;;;5.50;5.10;;;;;;;23.43;35.58;101110.53;4933652;28;20084;-72
2022/05/02 11:12:05;;;;;;;5.20;4.70;;;;;;;22.84;36.23;101108.78;4940883;28;20277;-72
2022/05/02 11:14:36;;;;;;;5.22;4.75;;;;;;;22.77;37.24;101111.47;4941385;28;20528;-71
2022/05/02 11:17:12;;;;;;;8.18;5.13;;;;;;;22.59;36.80;101104.84;4982682;28;20010;-71
2022/05/02 11:22:38;;;;;;;6.03;5.53;;;;;;;21.79;38.23;101099.31;4982248;28;20919;-72
2022/05/02 11:25:22;;;;;;;7.10;6.40;;;;;;;21.38;39.25;101098.28;4961429;28;20054;-73
2022/05/02 11:28:03;;;;;;;9.85;7.90;;;;;;;21.45;38.83;101103.72;4963699;28;20939;-71
2022/05/02 11:30:29;;;;;;;6.20;5.40;;;;;;;21.74;39.77;101085.63;4960656;28;20018;-72
2022/05/02 11:33:17;;;;;;;6.38;5.78;;;;;;;23.58;36.54;101096.75;4937307;28;20449;-72
2022/05/02 11:35:49;;;;;;;6.85;5.70;;;;;;;24.89;34.77;101087.34;4936945;28;20003;-71
2022/05/02 11:38:28;;;;;;;8.05;5.85;;;;;;;24.61;34.29;101089.47;4930614;28;20022;-71
2022/05/02 11:40:59;;;;;;;6.65;5.70;;;;;;;24.02;34.52;101093.44;4991871;28;20699;-71
2022/05/02 11:43:24;;;;;;;5.70;5.20;;;;;;;24.43;35.40;101092.94;4989360;28;20318;-71
2022/05/02 11:46:03;;;;;;;6.78;5.18;;;;;;;25.52;31.83;101083.53;4942270;28;20733;-72
2022/05/02 11:48:53;;;;;;;8.02;5.55;;;;;;;24.61;33.88;101084.06;4939557;28;20735;-72
2022/05/02 11:51:44;;;;;;;6.78;5.72;;;;;;;23.84;34.42;101086.84;4972866;28;20018;-72
2022/05/02 11:54:33;;;;;;;6.03;5.43;;;;;;;24.40;34.20;101081.75;4976747;28;20087;-71
2022/05/02 11:57:20;;;;;;;6.97;6.28;;;;;;;23.67;35.08;101089.22;4960485;28;20312;-74
2022/05/02 12:00:06;;;;;;;8.52;5.38;;;;;;;23.84;36.16;101081.44;4935247;28;20026;-71
2022/05/02 12:02:39;;;;;;;7.00;6.20;;;;;;;23.05;34.66;101083.41;4959650;28;20113;-72
2022/05/02 12:05:10;;;;;;;7.68;5.68;;;;;;;22.60;36.89;101079.53;4955442;28;20015;-72
2022/05/02 12:07:35;;;;;;;5.60;5.10;;;;;;;22.19;37.38;101079.69;4968909;28;20033;-71
2022/05/02 12:10:06;;;;;;;5.70;5.20;;;;;;;21.80;38.23;101084.81;4934980;28;20021;-72
2022/05/02 12:12:31;;;;;;;6.32;5.53;;;;;;;21.44;39.74;101080.50;4947424;28;20520;-71
2022/05/02 12:15:04;;;;;;;5.40;5.00;;;;;;;21.30;38.93;101079.59;4914777;28;20545;-72
2022/05/02 12:17:29;;;;;;;6.78;5.88;;;;;;;20.97;40.02;101090.19;4954189;28;20017;-71
2022/05/02 12:19:55;;;;;;;5.75;5.32;;;;;;;20.83;39.61;101079.34;4956883;28;20018;-72